Time;durP1;ratioP1;P1;durP2;ratioP2;P2;SDS_P1;SDS_P2;PMS_P1;PMS_P2;Temp;Humidity;BMP_temperature;BMP_pressure;BME280_temperature;BME280_humidity;BME280_pressure;Samples;Min_cycle;Max_cycle;Signal;HPM_P1;HPM_P2
2023/06/27 00:00:41;;;;;;;5.97;5.37;;;;;;;17.98;78.94;100855.91;5008564;28;20205;-71
2023/06/27 00:03:09;;;;;;;9.43;5.93;;;;;;;17.96;78.80;100862.75;5001815;28;20228;-71
2023/06/27 00:05:35;;;;;;;6.77;5.90;;;;;;;17.90;78.08;100858.88;4999853;28;20200;-71
2023/06/27 00:08:02;;;;;;;6.13;5.40;;;;;;;17.88;78.35;100858.47;5005993;28;20288;-71
2023/06/27 00:10:30;;;;;;;6.97;5.30;;;;;;;17.85;78.47;100867.97;4991855;28;20659;-71
2023/06/27 00:12:57;;;;;;;5.80;5.27;;;;;;;17.83;78.50;100867.59;5014264;28;20196;-71
2023/06/27 00:15:23;;;;;;;6.27;5.13;;;;;;;17.80;78.56;100870.97;5002560;28;20213;-71
2023/06/27 00:17:51;;;;;;;9.33;5.73;;;;;;;17.77;78.89;100878.97;5002727;28;20548;-72
2023/06/27 00:20:18;;;;;;;6.73;5.00;;;;;;;17.75;78.93;100878.56;5002580;28;20558;-71
2023/06/27 00:22:46;;;;;;;6.10;5.50;;;;;;;17.72;79.31;100881.97;4994636;28;20193;-71
2023/06/27 00:25:12;;;;;;;6.57;5.90;;;;;;;17.70;79.09;100884.25;4996352;28;20194;-71
2023/06/27 00:27:41;;;;;;;7.33;5.70;;;;;;;17.70;79.28;100903.69;5009282;28;20233;-71
2023/06/27 00:30:08;;;;;;;6.47;5.57;;;;;;;17.66;79.49;100900.25;5000844;28;20283;-71
2023/06/27 00:32:35;;;;;;;7.67;5.70;;;;;;;17.64;79.75;100907.06;5025458;28;20216;-71
2023/06/27 00:35:04;;;;;;;11.67;5.83;;;;;;;17.60;79.99;100909.69;4991158;28;20211;-71
2023/06/27 00:37:31;;;;;;;11.70;6.00;;;;;;;17.58;79.65;100903.94;4989256;28;20597;-72
2023/06/27 00:39:57;;;;;;;8.50;5.27;;;;;;;17.55;78.82;100909.25;4997609;28;20205;-71
2023/06/27 00:42:24;;;;;;;6.10;5.30;;;;;;;17.49;78.59;100900.78;4994480;28;20687;-71
2023/06/27 00:44:51;;;;;;;7.37;5.57;;;;;;;17.47;78.61;100903.06;5001808;28;20610;-71
2023/06/27 00:47:18;;;;;;;7.70;5.50;;;;;;;17.45;77.92;100907.22;5002885;28;20228;-71
2023/06/27 00:49:45;;;;;;;5.77;4.90;;;;;;;17.42;78.25;100915.94;4997315;28;20248;-71
2023/06/27 00:52:11;;;;;;;9.97;5.67;;;;;;;17.37;77.99;100913.56;5003276;28;20205;-72
2023/06/27 00:54:39;;;;;;;7.80;4.93;;;;;;;17.34;77.52;100904.38;5006946;28;20212;-71
2023/06/27 00:57:06;;;;;;;9.27;5.03;;;;;;;17.31;77.75;100901.66;5000528;28;20209;-71
2023/06/27 00:59:34;;;;;;;7.70;4.83;;;;;;;17.29;77.64;100917.28;4998147;28;20674;-71
2023/06/27 01:02:03;;;;;;;7.33;4.50;;;;;;;17.24;77.83;100909.59;4997171;28;20681;-71
2023/06/27 01:04:29;;;;;;;7.20;4.70;;;;;;;17.21;77.64;100912.97;4994278;28;20212;-71
2023/06/27 01:07:04;;;;;;;5.53;4.47;;;;;;;17.19;77.88;100909.91;4993639;28;20212;-71
2023/06/27 01:09:35;;;;;;;6.30;4.90;;;;;;;17.18;78.49;100919.03;4993568;28;20764;-71
2023/06/27 01:12:09;;;;;;;8.00;4.50;;;;;;;17.12;78.23;100907.91;5008181;28;20219;-71
2023/06/27 01:14:38;;;;;;;7.43;4.73;;;;;;;17.11;78.47;100909.03;4995423;28;20611;-71
2023/06/27 01:17:06;;;;;;;5.03;4.50;;;;;;;17.09;78.34;100915.84;4992862;28;20202;-71
2023/06/27 01:19:37;;;;;;;8.27;4.33;;;;;;;17.05;77.99;100921.16;5011808;28;20307;-71
2023/06/27 01:22:09;;;;;;;6.07;4.07;;;;;;;17.00;78.17;100924.13;4994969;28;20206;-72
2023/06/27 01:24:38;;;;;;;5.70;4.03;;;;;;;16.93;77.49;100920.59;4993304;28;20200;-71
2023/06/27 01:27:05;;;;;;;6.93;4.33;;;;;;;16.89;77.66;100920.53;4988225;28;20188;-71
2023/06/27 01:29:32;;;;;;;5.47;3.90;;;;;;;16.78;76.65;100906.28;4991605;28;20517;-72
2023/06/27 01:32:06;;;;;;;8.03;4.53;;;;;;;16.75;76.85;100914.97;5007692;28;20296;-71
2023/06/27 01:34:34;;;;;;;6.67;4.20;;;;;;;16.69;76.44;100921.75;5000428;28;20692;-72
2023/06/27 01:37:08;;;;;;;5.77;4.40;;;;;;;16.66;76.79;100916.38;4992919;28;20723;-71
2023/06/27 01:39:42;;;;;;;6.43;4.00;;;;;;;16.60;77.48;100925.78;5004275;28;20237;-71
2023/06/27 01:42:16;;;;;;;6.00;3.80;;;;;;;16.55;77.59;100932.19;5011098;28;20265;-72
2023/06/27 01:45:06;;;;;;;5.17;3.87;;;;;;;16.44;77.70;100920.59;4997363;28;20598;-71
2023/06/27 01:47:36;;;;;;;7.33;4.17;;;;;;;16.37;77.69;100922.31;5003317;28;20264;-71
2023/06/27 01:50:02;;;;;;;6.57;3.73;;;;;;;16.29;77.44;100924.09;5010958;28;20208;-71
2023/06/27 01:52:29;;;;;;;4.90;3.30;;;;;;;16.23;77.47;100922.84;5008470;28;20206;-71
2023/06/27 01:54:59;;;;;;;7.73;3.93;;;;;;;16.13;76.77;100920.00;5008060;28;20714;-71
2023/06/27 01:57:26;;;;;;;5.70;3.50;;;;;;;16.06;76.86;100938.53;4992350;28;20217;-71
2023/06/27 01:59:53;;;;;;;9.37;4.00;;;;;;;15.97;76.40;100933.41;4997668;28;20298;-71
2023/06/27 02:02:21;;;;;;;5.17;3.97;;;;;;;15.95;77.03;100929.56;4991385;28;20238;-71
2023/06/27 02:04:47;;;;;;;3.90;3.30;;;;;;;15.87;76.51;100923.34;4991450;28;20552;-71
2023/06/27 02:07:14;;;;;;;4.83;3.73;;;;;;;15.83;77.11;100929.72;4992377;28;20197;-72
2023/06/27 02:09:42;;;;;;;4.40;3.50;;;;;;;15.79;77.39;100934.22;5005470;28;20194;-71
2023/06/27 02:12:11;;;;;;;5.13;3.40;;;;;;;15.72;77.60;100934.84;5002497;28;20682;-71
2023/06/27 02:14:38;;;;;;;5.30;3.40;;;;;;;15.67;77.80;100932.44;4991182;28;20292;-71
2023/06/27 02:17:05;;;;;;;5.23;3.60;;;;;;;15.64;77.54;100943.03;4991016;28;20361;-71
2023/06/27 02:19:32;;;;;;;8.97;3.60;;;;;;;15.60;77.24;100942.19;4990636;28;20219;-71
2023/06/27 02:21:58;;;;;;;6.83;3.33;;;;;;;15.58;77.91;100949.75;5007060;28;20208;-71
2023/06/27 02:24:24;;;;;;;8.17;3.37;;;;;;;15.52;77.80;100954.56;5001281;28;20288;-71
2023/06/27 02:26:51;;;;;;;7.47;3.37;;;;;;;15.46;76.97;100955.19;5004389;28;20209;-71
2023/06/27 02:29:18;;;;;;;4.27;3.40;;;;;;;15.43;77.55;100953.25;4992901;28;20235;-71
2023/06/27 02:31:45;;;;;;;3.97;3.57;;;;;;;15.38;77.15;100954.25;4987824;28;20276;-71
2023/06/27 02:34:11;;;;;;;3.53;2.97;;;;;;;15.32;76.89;100957.53;4971284;28;20213;-71
2023/06/27 02:36:38;;;;;;;6.43;3.20;;;;;;;15.31;76.75;100958.66;4972780;28;20653;-71
2023/06/27 02:39:05;;;;;;;6.87;3.40;;;;;;;15.27;76.30;100960.47;4972735;28;20590;-71
2023/06/27 02:41:33;;;;;;;6.37;3.53;;;;;;;15.21;76.28;100965.28;4990170;28;20186;-72
2023/06/27 02:44:02;;;;;;;3.90;3.10;;;;;;;15.24;76.32;100971.78;4990639;28;20269;-71
2023/06/27 02:46:30;;;;;;;4.77;3.10;;;;;;;15.22;75.24;100968.72;4990640;28;20209;-71
2023/06/27 02:48:56;;;;;;;4.50;2.80;;;;;;;15.21;76.25;100965.28;4997336;28;20247;-71
2023/06/27 02:51:24;;;;;;;4.47;3.33;;;;;;;15.18;76.04;100970.53;4999836;28;20208;-70
2023/06/27 02:53:51;;;;;;;5.80;2.87;;;;;;;15.16;76.39;100976.19;4987151;28;20292;-71
2023/06/27 02:56:18;;;;;;;6.43;2.97;;;;;;;15.15;75.80;100971.97;4988045;28;20205;-70
2023/06/27 02:58:44;;;;;;;6.23;2.80;;;;;;;15.13;75.89;100973.44;4989853;28;20229;-71
2023/06/27 03:01:10;;;;;;;6.33;2.93;;;;;;;15.10;75.71;100980.22;4991783;28;20610;-71
2023/06/27 03:03:43;;;;;;;4.97;2.73;;;;;;;15.10;76.04;100980.22;4995385;28;20204;-71
2023/06/27 03:06:10;;;;;;;6.07;2.87;;;;;;;15.11;75.80;100976.44;4989400;28;20289;-70
2023/06/27 03:08:38;;;;;;;4.60;3.00;;;;;;;15.12;75.74;100975.31;4975200;28;20223;-71
2023/06/27 03:11:05;;;;;;;6.73;2.93;;;;;;;15.14;76.01;100977.63;4990459;28;20572;-71
2023/06/27 03:13:32;;;;;;;9.10;2.83;;;;;;;15.14;75.42;100974.97;4990171;28;20206;-71
2023/06/27 03:16:00;;;;;;;4.10;2.60;;;;;;;15.15;75.65;100979.97;4998182;28;20204;-71
2023/06/27 03:18:28;;;;;;;7.30;2.93;;;;;;;15.18;76.46;100984.59;4996020;28;20596;-71
2023/06/27 03:20:56;;;;;;;8.43;3.13;;;;;;;15.19;76.70;100988.81;4995286;28;20209;-71
2023/06/27 03:23:22;;;;;;;4.43;2.67;;;;;;;15.18;76.95;100981.16;4991673;28;20201;-70
2023/06/27 03:25:49;;;;;;;8.33;3.03;;;;;;;15.19;77.26;100982.69;4990018;28;20213;-71
2023/06/27 03:28:15;;;;;;;5.57;2.87;;;;;;;15.18;76.81;100981.16;4991187;28;20206;-71
2023/06/27 03:30:50;;;;;;;4.87;2.93;;;;;;;15.20;77.82;100986.91;4989985;28;20201;-71
2023/06/27 03:33:17;;;;;;;6.30;3.07;;;;;;;15.18;77.34;100984.59;4989549;28;20751;-71
2023/06/27 03:35:43;;;;;;;3.27;2.97;;;;;;;15.18;77.73;100987.25;5006352;28;20244;-71
2023/06/27 03:38:11;;;;;;;4.30;3.10;;;;;;;15.19;78.47;100990.69;4992393;28;20318;-71
2023/06/27 03:40:37;;;;;;;4.00;3.20;;;;;;;15.20;78.76;100997.53;4990923;28;20509;-71
2023/06/27 03:43:04;;;;;;;3.40;3.10;;;;;;;15.19;78.62;100996.78;4986394;28;20301;-71
2023/06/27 03:45:30;;;;;;;7.07;3.30;;;;;;;15.20;78.59;100997.53;4993590;28;20201;-71
2023/06/27 03:47:56;;;;;;;4.17;3.63;;;;;;;15.26;78.87;100999.59;5002992;28;20300;-71
2023/06/27 03:50:23;;;;;;;6.00;3.77;;;;;;;15.28;78.88;101007.22;4989680;28;20206;-71
2023/06/27 03:52:49;;;;;;;3.80;3.40;;;;;;;15.34;78.94;100997.91;4987911;28;20190;-71
2023/06/27 03:55:20;;;;;;;6.77;3.63;;;;;;;15.40;80.00;101002.59;4994395;28;20480;-71
2023/06/27 03:57:48;;;;;;;9.10;4.50;;;;;;;15.45;79.72;100999.69;4991508;28;20666;-71
2023/06/27 04:00:14;;;;;;;5.63;3.73;;;;;;;15.51;78.95;101002.81;4990508;28;20208;-71
2023/06/27 04:02:44;;;;;;;7.40;3.70;;;;;;;15.57;78.43;101004.88;4985932;28;20669;-71
2023/06/27 04:05:11;;;;;;;6.97;4.10;;;;;;;15.62;78.41;101001.94;4989838;28;20236;-71
2023/06/27 04:07:40;;;;;;;9.10;3.90;;;;;;;15.68;77.75;101005.88;4985917;28;20217;-71
2023/06/27 04:10:08;;;;;;;7.43;3.60;;;;;;;15.76;77.52;101012.13;4988316;28;20202;-71
2023/06/27 04:12:35;;;;;;;5.53;3.67;;;;;;;15.82;78.08;101016.03;4994796;28;20196;-71
2023/06/27 04:15:02;;;;;;;5.57;3.43;;;;;;;15.89;77.66;101008.22;4995054;28;20237;-71
2023/06/27 04:17:29;;;;;;;6.93;3.20;;;;;;;15.94;77.43;101007.94;4995948;28;20232;-71
2023/06/27 04:19:55;;;;;;;8.00;3.43;;;;;;;15.98;77.01;101014.88;4988297;28;20276;-71
2023/06/27 04:22:22;;;;;;;5.57;3.03;;;;;;;16.00;76.86;101017.19;4995859;28;20217;-71
2023/06/27 04:24:48;;;;;;;7.10;3.30;;;;;;;16.02;76.23;101014.94;5003357;28;20301;-71
2023/06/27 04:27:15;;;;;;;7.43;3.13;;;;;;;16.06;76.16;101018.44;4995336;28;20201;-71
2023/06/27 04:29:42;;;;;;;5.90;3.40;;;;;;;16.09;75.51;101017.75;4993648;28;20219;-71
2023/06/27 04:32:09;;;;;;;4.83;2.90;;;;;;;16.14;76.23;101010.22;4993314;28;20205;-71
2023/06/27 04:34:36;;;;;;;3.37;2.70;;;;;;;16.18;75.75;101011.06;5000441;28;20197;-71
2023/06/27 04:37:03;;;;;;;4.57;3.30;;;;;;;16.23;75.48;101016.13;4996530;28;20256;-71
2023/06/27 04:39:30;;;;;;;7.90;3.20;;;;;;;16.32;75.71;101023.91;4990188;28;20199;-71
2023/06/27 04:41:57;;;;;;;9.77;2.90;;;;;;;16.33;73.91;101018.22;4999535;28;20308;-71
2023/06/27 04:44:23;;;;;;;3.87;3.03;;;;;;;16.42;75.06;101018.03;4991487;28;20261;-71
2023/06/27 04:46:52;;;;;;;4.57;2.47;;;;;;;16.48;74.91;101020.06;4990918;28;20204;-71
2023/06/27 04:49:18;;;;;;;6.53;3.10;;;;;;;16.56;75.30;101019.03;5002710;28;20308;-71
2023/06/27 04:51:44;;;;;;;6.87;3.10;;;;;;;16.64;75.17;101019.94;4987209;28;20228;-71
2023/06/27 04:54:11;;;;;;;5.70;3.17;;;;;;;16.72;75.02;101019.69;4993667;28;20201;-71
2023/06/27 04:56:37;;;;;;;4.67;3.20;;;;;;;16.70;72.59;101023.84;4998015;28;20222;-71
2023/06/27 04:59:03;;;;;;;5.80;3.03;;;;;;;16.78;73.94;101025.53;4996118;28;20305;-72
2023/06/27 05:01:31;;;;;;;3.43;2.60;;;;;;;16.76;73.23;101031.19;5000628;28;20209;-72
2023/06/27 05:04:04;;;;;;;6.07;3.10;;;;;;;16.78;73.83;101026.31;4994867;28;20560;-72
2023/06/27 05:06:30;;;;;;;7.60;2.57;;;;;;;16.85;73.17;101020.28;5005348;28;20214;-72
2023/06/27 05:08:56;;;;;;;5.50;2.83;;;;;;;16.90;73.20;101020.78;4996707;28;20235;-72
2023/06/27 05:11:23;;;;;;;4.50;3.00;;;;;;;16.99;73.73;101023.19;5000239;28;20212;-72
2023/06/27 05:13:49;;;;;;;4.77;2.67;;;;;;;17.06;72.49;101021.41;4999371;28;20205;-72
2023/06/27 05:16:15;;;;;;;4.53;2.43;;;;;;;17.17;72.59;101030.34;4986855;28;20197;-72
2023/06/27 05:18:42;;;;;;;5.53;2.77;;;;;;;17.20;70.65;101034.19;4994133;28;20228;-71
2023/06/27 05:21:10;;;;;;;5.60;2.50;;;;;;;17.26;70.97;101032.75;4993408;28;20205;-71
2023/06/27 05:23:36;;;;;;;5.53;2.43;;;;;;;17.25;71.07;101032.00;5006418;28;20224;-71
2023/06/27 05:26:02;;;;;;;5.77;2.57;;;;;;;17.28;70.52;101033.94;5006598;28;20565;-72
2023/06/27 05:28:29;;;;;;;3.87;2.50;;;;;;;17.35;71.67;101030.63;4991695;28;20213;-71
2023/06/27 05:30:56;;;;;;;5.43;2.33;;;;;;;17.40;70.57;101031.13;4995424;28;20216;-71
2023/06/27 05:33:22;;;;;;;5.57;2.50;;;;;;;17.47;70.67;101030.44;4998555;28;20252;-71
2023/06/27 05:35:49;;;;;;;4.13;2.50;;;;;;;17.47;71.16;101025.88;4995815;28;20570;-71
2023/06/27 05:38:17;;;;;;;6.63;2.50;;;;;;;17.56;70.13;101036.28;4990706;28;20221;-71
2023/06/27 05:40:43;;;;;;;5.87;2.50;;;;;;;17.55;69.06;101035.50;5008042;28;20197;-71
2023/06/27 05:43:10;;;;;;;8.03;2.40;;;;;;;17.58;69.41;101032.13;4997685;28;20255;-71
2023/06/27 05:45:36;;;;;;;5.33;2.33;;;;;;;17.51;69.42;101033.94;4994447;28;20197;-71
2023/06/27 05:48:03;;;;;;;6.63;2.40;;;;;;;17.51;69.47;101033.94;4991787;28;20594;-71
2023/06/27 05:50:29;;;;;;;4.90;2.10;;;;;;;17.44;69.00;101036.50;4993479;28;20870;-71
2023/06/27 05:52:55;;;;;;;8.03;3.00;;;;;;;17.36;68.75;101042.84;4991746;28;20644;-71
2023/06/27 05:55:24;;;;;;;7.87;2.30;;;;;;;17.25;68.61;101039.25;4997388;28;20204;-71
2023/06/27 05:57:50;;;;;;;5.27;2.27;;;;;;;17.30;69.50;101041.59;4986837;28;20221;-71
2023/06/27 06:00:18;;;;;;;4.73;2.40;;;;;;;17.29;69.31;101042.72;4992546;28;20208;-71
2023/06/27 06:02:45;;;;;;;6.47;2.33;;;;;;;17.31;71.24;101048.47;4988629;28;20651;-71
2023/06/27 06:05:11;;;;;;;8.43;2.67;;;;;;;17.36;70.78;101048.94;4989182;28;20213;-71
2023/06/27 06:07:43;;;;;;;6.37;2.57;;;;;;;17.41;70.20;101051.34;4990132;28;20267;-72
2023/06/27 06:10:10;;;;;;;7.63;2.30;;;;;;;17.47;70.28;101044.56;4990269;28;20232;-72
2023/06/27 06:12:38;;;;;;;8.13;2.27;;;;;;;17.60;69.54;101042.47;4995102;28;20259;-72
2023/06/27 06:15:06;;;;;;;4.30;2.47;;;;;;;17.79;70.08;101045.78;4993890;28;20231;-71
2023/06/27 06:17:32;;;;;;;6.17;2.23;;;;;;;17.94;69.75;101042.16;4994073;28;20642;-71
2023/06/27 06:19:59;;;;;;;6.70;2.57;;;;;;;18.01;67.59;101052.16;4997142;28;20208;-71
2023/06/27 06:22:25;;;;;;;10.40;2.23;;;;;;;18.00;66.18;101046.03;4996986;28;20207;-71
2023/06/27 06:24:51;;;;;;;4.97;2.27;;;;;;;18.04;67.55;101048.75;4990468;28;20209;-71
2023/06/27 06:27:18;;;;;;;9.73;2.30;;;;;;;18.07;66.42;101050.69;4994511;28;20227;-71
2023/06/27 06:29:45;;;;;;;3.63;1.90;;;;;;;18.09;65.50;101053.78;5008690;28;20620;-71
2023/06/27 06:32:12;;;;;;;7.00;2.17;;;;;;;18.13;64.82;101049.25;4992607;28;20194;-71
2023/06/27 06:34:38;;;;;;;6.43;2.17;;;;;;;18.19;66.83;101056.59;4990829;28;20216;-71
2023/06/27 06:37:05;;;;;;;5.00;2.20;;;;;;;18.24;64.75;101058.16;4992450;28;20212;-71
2023/06/27 06:39:31;;;;;;;9.87;2.63;;;;;;;18.30;65.73;101056.69;4990734;28;20641;-71
2023/06/27 06:41:58;;;;;;;3.57;1.83;;;;;;;18.35;63.13;101061.75;4989766;28;20284;-71
2023/06/27 06:44:25;;;;;;;7.40;2.40;;;;;;;18.45;64.11;101058.41;4995312;28;20193;-72
2023/06/27 06:46:53;;;;;;;6.07;2.53;;;;;;;18.51;66.97;101059.63;4990631;28;20201;-71
2023/06/27 06:49:19;;;;;;;6.27;2.03;;;;;;;18.53;63.42;101052.75;4995556;28;20209;-71
2023/06/27 06:51:46;;;;;;;6.90;2.50;;;;;;;18.67;64.05;101057.50;4988760;28;20232;-71
2023/06/27 06:54:12;;;;;;;5.80;2.13;;;;;;;18.66;63.10;101059.41;4998071;28;20211;-71
2023/06/27 06:56:39;;;;;;;8.87;2.30;;;;;;;18.68;63.02;101067.81;5003116;28;20664;-71
2023/06/27 06:59:06;;;;;;;3.70;1.80;;;;;;;18.68;63.86;101070.50;4993189;28;20309;-71
2023/06/27 07:01:33;;;;;;;5.87;1.90;;;;;;;18.76;61.96;101064.09;4989603;28;20232;-72
2023/06/27 07:04:00;;;;;;;7.67;2.43;;;;;;;18.91;63.09;101064.97;4991450;28;20619;-71
2023/06/27 07:06:28;;;;;;;4.40;2.00;;;;;;;18.90;60.72;101074.16;4990201;28;20212;-71
2023/06/27 07:08:55;;;;;;;4.30;2.07;;;;;;;18.93;62.57;101066.16;4994271;28;20659;-71
2023/06/27 07:11:21;;;;;;;5.00;1.80;;;;;;;18.93;61.82;101068.06;4992279;28;20205;-71
2023/06/27 07:13:48;;;;;;;8.23;2.20;;;;;;;19.07;62.27;101071.63;4988217;28;20228;-71
2023/06/27 07:16:14;;;;;;;5.10;2.80;;;;;;;19.19;60.65;101068.66;4989912;28;20205;-71
2023/06/27 07:18:40;;;;;;;3.03;1.77;;;;;;;19.30;61.53;101068.78;4997836;28;20229;-71
2023/06/27 07:21:08;;;;;;;5.33;1.93;;;;;;;19.35;60.88;101079.16;4990159;28;20201;-71
2023/06/27 07:23:36;;;;;;;7.60;2.00;;;;;;;19.41;61.99;101072.31;5003382;28;20228;-72
2023/06/27 07:26:02;;;;;;;5.97;1.90;;;;;;;19.56;58.55;101074.69;4999609;28;20218;-71
2023/06/27 07:28:29;;;;;;;5.43;1.73;;;;;;;19.68;60.82;101074.41;4998329;28;20271;-72
2023/06/27 07:30:55;;;;;;;5.97;2.00;;;;;;;19.63;57.56;101065.94;4997656;28;20213;-71
2023/06/27 07:33:22;;;;;;;6.77;1.73;;;;;;;19.69;57.57;101083.19;4997886;28;20668;-71
2023/06/27 07:35:48;;;;;;;6.20;1.97;;;;;;;19.66;58.81;101070.56;5005042;28;20189;-71
2023/06/27 07:38:16;;;;;;;7.63;1.97;;;;;;;19.57;58.00;101073.56;4996946;28;20221;-71
2023/06/27 07:40:43;;;;;;;3.43;1.30;;;;;;;19.54;60.34;101057.44;4998882;28;20193;-71
2023/06/27 07:43:09;;;;;;;5.60;1.77;;;;;;;19.38;55.86;101055.06;4993207;28;20208;-71
2023/06/27 07:45:35;;;;;;;6.10;1.80;;;;;;;19.45;56.98;101062.38;5001011;28;20219;-72
2023/06/27 07:48:02;;;;;;;3.63;1.50;;;;;;;19.55;59.42;101057.09;4994673;28;20221;-71
2023/06/27 07:50:28;;;;;;;7.37;1.77;;;;;;;19.63;60.78;101056.00;4994280;28;20234;-71
2023/06/27 07:52:55;;;;;;;5.90;1.87;;;;;;;19.78;56.47;101054.16;5004403;28;20204;-71
2023/06/27 07:55:22;;;;;;;3.80;1.73;;;;;;;19.83;55.95;101043.06;4995600;28;20664;-71
2023/06/27 07:57:49;;;;;;;6.10;1.80;;;;;;;19.85;54.70;101041.56;4998621;28;20221;-71
2023/06/27 08:00:16;;;;;;;4.47;1.50;;;;;;;19.89;57.99;101053.06;5000179;28;20201;-71
2023/06/27 08:02:42;;;;;;;6.13;2.10;;;;;;;19.80;55.32;101049.97;5006984;28;20196;-71
2023/06/27 08:05:09;;;;;;;2.87;1.70;;;;;;;19.87;58.13;101051.91;4997212;28;20197;-71
2023/06/27 08:07:36;;;;;;;4.87;1.80;;;;;;;19.88;57.71;101045.41;4992463;28;20526;-71
2023/06/27 08:10:04;;;;;;;4.50;1.57;;;;;;;19.78;55.87;101041.53;5009883;28;20758;-71
2023/06/27 08:12:31;;;;;;;4.13;1.20;;;;;;;19.76;58.97;101043.06;4995063;28;20224;-71
2023/06/27 08:14:58;;;;;;;5.40;1.50;;;;;;;19.62;56.58;101043.72;4992740;28;20200;-71
2023/06/27 08:17:24;;;;;;;8.00;1.83;;;;;;;19.54;58.46;101049.41;5004717;28;20220;-71
2023/06/27 08:19:50;;;;;;;4.80;1.47;;;;;;;19.34;58.67;101045.47;5007520;28;20196;-71
2023/06/27 08:22:17;;;;;;;7.40;1.77;;;;;;;19.33;58.44;101039.34;4993917;28;20209;-72
2023/06/27 08:24:43;;;;;;;4.37;1.60;;;;;;;19.36;58.00;101038.59;4996352;28;20200;-71
2023/06/27 08:27:10;;;;;;;4.97;1.80;;;;;;;19.47;57.94;101038.66;4981061;28;20687;-71
2023/06/27 08:29:37;;;;;;;6.27;1.53;;;;;;;19.56;58.59;101026.47;4999926;28;20213;-71
2023/06/27 08:32:04;;;;;;;4.33;1.70;;;;;;;19.64;55.97;101025.38;5000690;28;20200;-71
2023/06/27 08:34:33;;;;;;;5.73;1.77;;;;;;;19.69;59.07;101019.66;4999765;28;20201;-72
2023/06/27 08:37:00;;;;;;;11.47;2.07;;;;;;;19.73;55.55;101035.75;4996731;28;20193;-71
2023/06/27 08:39:28;;;;;;;5.40;1.80;;;;;;;19.83;57.02;101030.47;4991797;28;20609;-71
2023/06/27 08:41:56;;;;;;;4.67;1.60;;;;;;;19.88;55.97;101022.03;4997365;28;20216;-71
2023/06/27 08:44:23;;;;;;;2.17;1.40;;;;;;;19.93;56.73;101013.63;4989647;28;20544;-71
2023/06/27 08:46:51;;;;;;;2.70;1.23;;;;;;;20.07;59.82;101024.44;4997338;28;20199;-71
2023/06/27 08:49:21;;;;;;;3.30;1.40;;;;;;;20.23;56.10;101021.44;4996386;28;20228;-71
2023/06/27 08:51:49;;;;;;;5.50;1.33;;;;;;;20.42;56.93;101023.75;4992619;28;20264;-71
2023/06/27 08:54:24;;;;;;;5.00;1.30;;;;;;;20.50;55.68;101018.03;4995219;28;20275;-71
2023/06/27 08:56:51;;;;;;;2.80;1.20;;;;;;;20.48;54.97;101023.00;4996114;28;20210;-71
2023/06/27 08:59:20;;;;;;;5.17;1.63;;;;;;;20.36;56.32;101036.78;4995326;28;20214;-71
2023/06/27 09:01:49;;;;;;;4.40;1.37;;;;;;;20.15;52.03;101041.31;4994924;28;20571;-71
2023/06/27 09:04:17;;;;;;;5.37;1.60;;;;;;;19.96;53.67;101033.53;4991618;28;20212;-71
2023/06/27 09:06:46;;;;;;;2.37;1.00;;;;;;;20.03;55.04;101036.28;4987009;28;20607;-71
2023/06/27 09:09:14;;;;;;;6.33;1.83;;;;;;;20.02;53.75;101021.34;4998217;28;20227;-71
2023/06/27 09:11:40;;;;;;;3.67;1.40;;;;;;;20.10;56.07;101009.50;4995613;28;20205;-71
2023/06/27 09:14:07;;;;;;;2.27;1.40;;;;;;;20.15;54.37;101006.47;4995556;28;20690;-71
2023/06/27 09:16:34;;;;;;;5.27;1.53;;;;;;;20.23;53.70;101006.09;4997661;28;20216;-71
2023/06/27 09:19:00;;;;;;;4.83;1.10;;;;;;;20.23;50.92;101003.41;4994294;28;20705;-71
2023/06/27 09:21:32;;;;;;;3.83;1.50;;;;;;;20.38;54.22;101012.28;4991350;28;20213;-71
2023/06/27 09:24:05;;;;;;;2.77;1.20;;;;;;;20.39;51.87;101003.81;4996652;28;20209;-71
2023/06/27 09:26:31;;;;;;;4.23;1.30;;;;;;;20.44;53.35;101000.03;4988934;28;20209;-71
2023/06/27 09:29:00;;;;;;;3.33;1.10;;;;;;;20.59;55.45;101006.94;4988872;28;20240;-71
2023/06/27 09:31:27;;;;;;;3.37;1.20;;;;;;;20.75;52.60;101002.72;4993082;28;20220;-71
2023/06/27 09:34:04;;;;;;;3.60;0.97;;;;;;;20.87;52.82;101009.63;4996380;28;20197;-71
2023/06/27 09:36:33;;;;;;;2.33;1.37;;;;;;;20.78;49.08;101009.22;4998936;28;20215;-71
2023/06/27 09:39:01;;;;;;;2.97;1.37;;;;;;;20.79;50.23;101000.81;4989554;28;20220;-71
2023/06/27 09:41:40;;;;;;;4.43;1.10;;;;;;;20.76;50.81;101011.53;4993615;28;20229;-71
2023/06/27 09:44:11;;;;;;;6.20;1.10;;;;;;;20.72;51.71;100998.13;4996496;28;20283;-70
2023/06/27 09:46:37;;;;;;;3.10;0.87;;;;;;;20.76;52.06;100990.84;4998100;28;20212;-71
2023/06/27 09:49:06;;;;;;;3.00;1.10;;;;;;;20.91;51.82;100981.66;4998564;28;20221;-71
2023/06/27 09:51:34;;;;;;;6.80;1.43;;;;;;;21.09;50.94;100993.16;4996102;28;20279;-71
2023/06/27 09:54:00;;;;;;;2.20;0.77;;;;;;;21.20;51.93;100999.28;4996011;28;20205;-71
2023/06/27 09:56:30;;;;;;;2.13;1.13;;;;;;;21.35;49.89;100995.41;4995772;28;20217;-71
2023/06/27 09:58:56;;;;;;;3.43;1.10;;;;;;;21.47;49.06;100997.66;4995860;28;20456;-71
2023/06/27 10:01:23;;;;;;;3.67;1.30;;;;;;;21.60;50.12;101006.84;4992651;28;20189;-71
2023/06/27 10:03:50;;;;;;;1.47;0.80;;;;;;;21.63;47.68;100998.00;4992178;28;20643;-71
2023/06/27 10:06:16;;;;;;;2.87;1.10;;;;;;;21.75;48.06;100991.47;4991355;28;20200;-71
2023/06/27 10:08:44;;;;;;;3.60;1.30;;;;;;;21.92;48.60;101001.38;4997333;28;20213;-71
2023/06/27 10:11:10;;;;;;;1.57;1.00;;;;;;;22.10;51.41;100994.75;5001202;28;20220;-71
2023/06/27 10:13:37;;;;;;;2.80;1.10;;;;;;;22.24;46.98;100994.69;4995305;28;20213;-71
2023/06/27 10:16:04;;;;;;;2.47;1.20;;;;;;;22.46;49.39;100987.28;4993328;28;20256;-71
2023/06/27 10:18:30;;;;;;;1.80;0.80;;;;;;;22.59;46.41;100996.38;4993419;28;20256;-71
2023/06/27 10:20:57;;;;;;;1.92;0.93;;;;;;;22.68;47.05;100996.72;4990335;28;20209;-71
2023/06/27 10:23:25;;;;;;;1.40;1.00;;;;;;;22.66;47.55;101001.75;4992297;28;20700;-71
2023/06/27 10:25:53;;;;;;;2.33;0.93;;;;;;;22.45;51.20;101008.03;4995796;28;20201;-71
2023/06/27 10:28:20;;;;;;;2.20;1.05;;;;;;;22.21;47.54;101014.31;4992758;28;20225;-71
2023/06/27 10:30:48;;;;;;;3.07;1.20;;;;;;;21.78;50.55;101020.28;4989627;28;20232;-71
2023/06/27 10:33:22;;;;;;;3.57;1.30;;;;;;;20.51;54.56;101038.38;4987869;28;20193;-74
2023/06/27 10:35:54;;;;;;;1.60;1.00;;;;;;;19.85;56.98;101006.72;4994312;28;20198;-74
2023/06/27 10:38:20;;;;;;;3.90;1.00;;;;;;;19.27;59.79;101003.34;4993653;28;20755;-74
2023/06/27 10:41:10;;;;;;;1.83;1.20;;;;;;;18.80;62.50;101003.34;5003744;28;20214;-74
2023/06/27 10:43:37;;;;;;;3.80;1.67;;;;;;;18.25;65.70;101011.56;4993097;28;20193;-73
2023/06/27 10:46:08;;;;;;;4.33;1.73;;;;;;;17.99;67.53;101014.31;4991869;28;20205;-73
2023/06/27 10:48:35;;;;;;;6.30;1.73;;;;;;;17.75;67.92;101025.50;5001050;28;20239;-74
2023/06/27 10:51:07;;;;;;;3.70;1.50;;;;;;;17.44;70.81;101021.25;4998411;28;20681;-74
2023/06/27 10:53:33;;;;;;;4.83;1.90;;;;;;;17.03;70.88;101011.44;4995461;28;20201;-74
2023/06/27 10:56:16;;;;;;;3.87;1.90;;;;;;;16.85;71.35;100994.41;4997529;28;20204;-74
2023/06/27 10:58:45;;;;;;;4.37;1.60;;;;;;;16.72;70.64;100984.28;4987425;28;20231;-74
2023/06/27 11:01:12;;;;;;;2.83;1.90;;;;;;;16.64;74.47;100983.38;4999862;28;20556;-74
2023/06/27 11:03:39;;;;;;;5.47;2.40;;;;;;;16.61;74.44;100964.66;4995280;28;20200;-74
2023/06/27 11:06:06;;;;;;;4.27;2.40;;;;;;;16.62;74.49;100968.88;4991966;28;20215;-74
2023/06/27 11:08:34;;;;;;;6.80;3.13;;;;;;;16.64;75.33;100970.06;4996969;28;20218;-74
2023/06/27 11:11:04;;;;;;;4.87;2.67;;;;;;;16.72;77.24;100968.28;4998600;28;20213;-74
2023/06/27 11:13:34;;;;;;;10.10;3.60;;;;;;;16.89;79.65;100973.88;4999052;28;20197;-74
2023/06/27 11:16:01;;;;;;;6.47;4.17;;;;;;;17.07;80.08;100984.84;4992831;28;20201;-74
2023/06/27 11:18:28;;;;;;;14.73;5.23;;;;;;;17.34;82.18;100976.44;4991627;28;20228;-74
2023/06/27 11:20:56;;;;;;;8.93;5.80;;;;;;;17.55;80.63;100976.00;4993891;28;20252;-75
2023/06/27 11:23:24;;;;;;;7.70;4.87;;;;;;;17.69;78.69;100968.94;5005615;28;20200;-75
2023/06/27 11:25:52;;;;;;;7.00;4.70;;;;;;;17.83;79.22;100968.34;4993554;28;20223;-75